Time;durP1;ratioP1;P1;durP2;ratioP2;P2;SDS_P1;SDS_P2;PMS_P1;PMS_P2;Temp;Humidity;BMP_temperature;BMP_pressure;BME280_temperature;BME280_humidity;BME280_pressure;Samples;Min_cycle;Max_cycle;Signal;HPM_P1;HPM_P2
2021/10/03 00:01:46;;;;;;;0.20;0.20;;;;;;;;;;4993402;28;20038;-85
2021/10/03 00:04:13;;;;;;;0.22;0.22;;;;;;;;;;4997566;28;20037;-84
2021/10/03 00:06:39;;;;;;;0.03;0.03;;;;;;;;;;4996688;28;20136;-85
2021/10/03 00:09:05;;;;;;;0.00;0.00;;;;;;;;;;4991593;28;20141;-85
2021/10/03 00:11:32;;;;;;;0.13;0.13;;;;;;;;;;4997289;28;20054;-86
2021/10/03 00:13:58;;;;;;;0.35;0.35;;;;;;;;;;4994456;28;20029;-85
2021/10/03 00:16:24;;;;;;;0.10;0.10;;;;;;;;;;4992658;28;20066;-85
2021/10/03 00:18:52;;;;;;;0.03;0.03;;;;;;;;;;4991749;28;20038;-85
2021/10/03 00:21:18;;;;;;;0.35;0.35;;;;;;;;;;4990535;28;20500;-84
2021/10/03 00:23:44;;;;;;;0.00;0.00;;;;;;;;;;4990617;28;20026;-85
2021/10/03 00:26:10;;;;;;;0.17;0.17;;;;;;;;;;4990908;28;20030;-85
2021/10/03 00:28:36;;;;;;;0.20;0.20;;;;;;;;;;4991563;28;20056;-85
2021/10/03 00:31:02;;;;;;;0.05;0.05;;;;;;;;;;4989309;28;20044;-84
2021/10/03 00:33:28;;;;;;;0.20;0.15;;;;;;;;;;4995054;28;20033;-85
2021/10/03 00:35:54;;;;;;;0.10;0.10;;;;;;;;;;4994058;28;20164;-85
2021/10/03 00:38:21;;;;;;;0.63;0.30;;;;;;;;;;4990624;28;20030;-84
2021/10/03 00:40:47;;;;;;;0.82;0.60;;;;;;;;;;4991904;28;20023;-84
2021/10/03 00:43:14;;;;;;;0.43;0.38;;;;;;;;;;4989843;28;20216;-85
2021/10/03 00:45:41;;;;;;;0.05;0.05;;;;;;;;;;4995399;28;20526;-84
2021/10/03 00:48:07;;;;;;;0.50;0.50;;;;;;;;;;4994446;28;20128;-86
2021/10/03 00:50:34;;;;;;;0.50;0.40;;;;;;;;;;4990032;28;20034;-87
2021/10/03 00:53:00;;;;;;;0.63;0.38;;;;;;;;;;4992608;28;20026;-87
2021/10/03 00:55:27;;;;;;;0.10;0.10;;;;;;;;;;4990886;28;20093;-87
2021/10/03 00:57:54;;;;;;;0.00;0.00;;;;;;;;;;4992142;28;20040;-87
2021/10/03 01:00:20;;;;;;;;;;;;;;;;;;4992698;28;20061;-87
2021/10/03 01:02:47;;;;;;;0.40;0.40;;;;;;;;;;5023048;28;19918;-88
2021/10/03 01:05:13;;;;;;;0.10;0.10;;;;;;;;;;4992371;28;20100;-87
2021/10/03 01:07:39;;;;;;;0.85;0.65;;;;;;;;;;4998254;28;20069;-86
2021/10/03 01:10:10;;;;;;;0.43;0.43;;;;;;;;;;4993498;28;20428;-86
2021/10/03 01:12:36;;;;;;;1.02;0.65;;;;;;;;;;4975843;28;20084;-86
2021/10/03 01:15:04;;;;;;;0.57;0.38;;;;;;;;;;5000959;28;20026;-85
2021/10/03 01:17:30;;;;;;;1.83;0.30;;;;;;;;;;4994856;28;20030;-86
2021/10/03 01:19:56;;;;;;;0.10;0.10;;;;;;;;;;4989651;28;20042;-86
2021/10/03 01:22:23;;;;;;;0.30;0.25;;;;;;;;;;4994829;28;20030;-85
2021/10/03 01:24:49;;;;;;;0.25;0.20;;;;;;;;;;4994076;28;20061;-86
2021/10/03 01:27:15;;;;;;;0.75;0.63;;;;;;;;;;4997477;28;20054;-85
2021/10/03 01:29:42;;;;;;;1.35;0.85;;;;;;;;;;4991386;28;20034;-84
2021/10/03 01:32:09;;;;;;;0.38;0.38;;;;;;;;;;4992017;28;20065;-85
2021/10/03 01:34:35;;;;;;;0.10;0.10;;;;;;;;;;4992032;28;20037;-86
2021/10/03 01:37:01;;;;;;;0.20;0.20;;;;;;;;;;5000582;28;20029;-85
2021/10/03 01:39:28;;;;;;;0.15;0.15;;;;;;;;;;4993970;28;20506;-86
2021/10/03 01:41:54;;;;;;;0.15;0.15;;;;;;;;;;4988889;28;20176;-85
2021/10/03 01:44:20;;;;;;;2.08;0.45;;;;;;;;;;4993764;28;20466;-86
2021/10/03 01:46:46;;;;;;;0.28;0.28;;;;;;;;;;4991134;28;20030;-86
2021/10/03 01:49:12;;;;;;;0.10;0.10;;;;;;;;;;4988801;28;20053;-86
2021/10/03 01:51:39;;;;;;;1.85;0.25;;;;;;;;;;4990866;28;20081;-86
2021/10/03 01:54:05;;;;;;;0.10;0.10;;;;;;;;;;4991101;28;20038;-87
2021/10/03 01:56:32;;;;;;;0.00;0.00;;;;;;;;;;4989623;28;20028;-87
2021/10/03 01:59:04;;;;;;;0.30;0.30;;;;;;;;;;4993968;28;20021;-85
2021/10/03 02:01:32;;;;;;;0.57;0.57;;;;;;;;;;4992713;28;20041;-86
2021/10/03 02:03:58;;;;;;;0.20;0.20;;;;;;;;;;4991799;28;20034;-86
2021/10/03 02:06:25;;;;;;;0.10;0.10;;;;;;;;;;4991359;28;20758;-87
2021/10/03 02:08:54;;;;;;;0.63;0.63;;;;;;;;;;4990923;28;20082;-86
2021/10/03 02:11:21;;;;;;;0.10;0.10;;;;;;;;;;4993658;28;20046;-87
2021/10/03 02:13:47;;;;;;;0.25;0.20;;;;;;;;;;4991994;28;20489;-86
2021/10/03 02:16:13;;;;;;;0.20;0.20;;;;;;;;;;4998741;28;20108;-87
2021/10/03 02:18:40;;;;;;;0.10;0.10;;;;;;;;;;4990786;28;20069;-87
2021/10/03 02:21:07;;;;;;;0.52;0.50;;;;;;;;;;4993487;28;20432;-87
2021/10/03 02:23:34;;;;;;;0.20;0.20;;;;;;;;;;4995517;28;20046;-87
2021/10/03 02:26:00;;;;;;;0.43;0.43;;;;;;;;;;4992724;28;20125;-87
2021/10/03 02:28:26;;;;;;;0.40;0.40;;;;;;;;;;4995824;28;20050;-87
2021/10/03 02:30:54;;;;;;;0.30;0.30;;;;;;;;;;4994787;28;20566;-87
2021/10/03 02:33:20;;;;;;;0.32;0.32;;;;;;;;;;4996056;28;20511;-87
2021/10/03 02:35:47;;;;;;;0.15;0.15;;;;;;;;;;4992458;28;20030;-85
2021/10/03 02:38:15;;;;;;;0.13;0.13;;;;;;;;;;4992599;28;20034;-84
2021/10/03 02:40:42;;;;;;;1.02;0.80;;;;;;;;;;4993099;28;20493;-87
2021/10/03 02:43:08;;;;;;;0.35;0.35;;;;;;;;;;4994881;28;20080;-86
2021/10/03 02:45:39;;;;;;;0.10;0.10;;;;;;;;;;4995109;28;20036;-87
2021/10/03 02:48:05;;;;;;;0.30;0.30;;;;;;;;;;4994707;28;20053;-88
2021/10/03 02:50:31;;;;;;;1.30;0.57;;;;;;;;;;4993111;28;20030;-89
2021/10/03 02:52:57;;;;;;;0.32;0.32;;;;;;;;;;4995459;28;20520;-89
2021/10/03 02:55:24;;;;;;;0.10;0.10;;;;;;;;;;4990433;28;20034;-89
2021/10/03 02:57:50;;;;;;;0.30;0.30;;;;;;;;;;4992192;28;20053;-89
2021/10/03 03:00:16;;;;;;;0.03;0.03;;;;;;;;;;4996498;28;20148;-88
2021/10/03 03:02:42;;;;;;;0.35;0.35;;;;;;;;;;4993753;28;20045;-90
2021/10/03 03:05:08;;;;;;;0.10;0.10;;;;;;;;;;4995917;28;20508;-86
2021/10/03 03:07:34;;;;;;;;;;;;;;;;;;4998291;28;20030;-86
2021/10/03 03:10:00;;;;;;;0.50;0.50;;;;;;;;;;4997213;28;19921;-85
2021/10/03 03:12:26;;;;;;;0.20;0.20;;;;;;;;;;4997484;28;20081;-92
2021/10/03 03:14:52;;;;;;;0.80;0.43;;;;;;;;;;4995513;28;20037;-91
2021/10/03 03:17:19;;;;;;;0.25;0.25;;;;;;;;;;4998493;28;20034;-92
2021/10/03 03:19:45;;;;;;;;;;;;;;;;;;4997602;28;20070;-91
2021/10/03 03:22:12;;;;;;;3.08;1.25;;;;;;;;;;4996126;28;19917;-91
2021/10/03 03:24:39;;;;;;;0.65;0.30;;;;;;;;;;4992372;28;20034;-88
2021/10/03 03:27:05;;;;;;;;;;;;;;;;;;4991469;28;20760;-89
2021/10/03 03:29:32;;;;;;;0.98;0.47;;;;;;;;;;4994953;28;19918;-90
2021/10/03 03:31:58;;;;;;;0.22;0.22;;;;;;;;;;4991505;28;20030;-87
2021/10/03 03:34:24;;;;;;;0.80;0.75;;;;;;;;;;4991102;28;20131;-89
2021/10/03 03:36:50;;;;;;;1.08;0.68;;;;;;;;;;4992463;28;20077;-88
2021/10/03 03:39:17;;;;;;;3.97;2.45;;;;;;;;;;4991091;28;20035;-88
2021/10/03 03:41:43;;;;;;;28.83;2.45;;;;;;;;;;4990614;28;20034;-88
2021/10/03 03:44:09;;;;;;;0.32;0.28;;;;;;;;;;4990969;28;20038;-90
2021/10/03 03:46:35;;;;;;;0.20;0.20;;;;;;;;;;4992991;28;20061;-91
2021/10/03 03:49:01;;;;;;;1.08;0.47;;;;;;;;;;4989739;28;20038;-91
2021/10/03 03:51:27;;;;;;;0.22;0.22;;;;;;;;;;4995896;28;20117;-91
2021/10/03 03:53:53;;;;;;;0.20;0.20;;;;;;;;;;5002156;28;20030;-88
2021/10/03 03:56:19;;;;;;;4.15;0.52;;;;;;;;;;4999920;28;20100;-87
2021/10/03 03:58:45;;;;;;;1.85;1.30;;;;;;;;;;4997530;28;20038;-87
2021/10/03 04:01:11;;;;;;;0.45;0.45;;;;;;;;;;4992519;28;20038;-86
2021/10/03 04:03:37;;;;;;;0.17;0.17;;;;;;;;;;5002076;28;20057;-86
2021/10/03 04:06:04;;;;;;;0.65;0.38;;;;;;;;;;5002493;28;20045;-86
2021/10/03 04:08:30;;;;;;;0.40;0.40;;;;;;;;;;4997716;28;20037;-87
2021/10/03 04:10:56;;;;;;;0.50;0.50;;;;;;;;;;5001215;28;20493;-87
2021/10/03 04:13:22;;;;;;;0.20;0.20;;;;;;;;;;4997561;28;20037;-88
2021/10/03 04:15:48;;;;;;;0.65;0.43;;;;;;;;;;4996814;28;20104;-87
2021/10/03 04:18:14;;;;;;;0.10;0.10;;;;;;;;;;5000190;28;20795;-87
2021/10/03 04:20:41;;;;;;;0.43;0.40;;;;;;;;;;4999501;28;20040;-89
2021/10/03 04:23:07;;;;;;;0.60;0.60;;;;;;;;;;4994721;28;20127;-88
2021/10/03 04:25:33;;;;;;;0.55;0.30;;;;;;;;;;4990774;28;20036;-88
2021/10/03 04:27:59;;;;;;;1.77;1.10;;;;;;;;;;4993692;28;20057;-85
2021/10/03 04:30:25;;;;;;;0.85;0.70;;;;;;;;;;4996738;28;20026;-85
2021/10/03 04:32:52;;;;;;;23.92;1.45;;;;;;;;;;4992455;28;20034;-85
2021/10/03 04:35:18;;;;;;;2.20;0.90;;;;;;;;;;4996608;28;20042;-85
2021/10/03 04:37:44;;;;;;;0.93;0.93;;;;;;;;;;4997124;28;20105;-87
2021/10/03 04:40:10;;;;;;;1.92;1.70;;;;;;;;;;4994052;28;20017;-91
2021/10/03 04:42:36;;;;;;;0.80;0.80;;;;;;;;;;4993605;28;20038;-91
2021/10/03 04:45:03;;;;;;;11.23;0.73;;;;;;;;;;4995486;28;20505;-94
2021/10/03 04:47:29;;;;;;;0.47;0.47;;;;;;;;;;4998624;28;20057;-93
2021/10/03 04:49:56;;;;;;;2.10;0.95;;;;;;;;;;4995698;28;20038;-91
2021/10/03 04:52:25;;;;;;;0.52;0.32;;;;;;;;;;4997577;28;20037;-89
2021/10/03 04:54:51;;;;;;;5.05;1.45;;;;;;;;;;4989867;28;20628;-88
2021/10/03 04:57:17;;;;;;;2.72;0.90;;;;;;;;;;4994077;28;20022;-85
2021/10/03 04:59:43;;;;;;;0.80;0.57;;;;;;;;;;4997596;28;20108;-86
2021/10/03 05:02:09;;;;;;;0.73;0.73;;;;;;;;;;4994044;28;20076;-87
2021/10/03 05:04:35;;;;;;;0.57;0.43;;;;;;;;;;4996684;28;20041;-87
2021/10/03 05:07:02;;;;;;;0.38;0.38;;;;;;;;;;4997745;28;20037;-87
2021/10/03 05:09:28;;;;;;;1.00;0.95;;;;;;;;;;4999876;28;20152;-88
2021/10/03 05:11:54;;;;;;;0.10;0.10;;;;;;;;;;4997123;28;20030;-89
2021/10/03 05:14:20;;;;;;;0.40;0.40;;;;;;;;;;4993383;28;20624;-86
2021/10/03 05:16:46;;;;;;;0.93;0.93;;;;;;;;;;4996758;28;20234;-87
2021/10/03 05:19:12;;;;;;;0.52;0.52;;;;;;;;;;4994354;28;20053;-87
2021/10/03 05:21:38;;;;;;;0.38;0.32;;;;;;;;;;4992727;28;20066;-87
2021/10/03 05:24:05;;;;;;;0.90;0.20;;;;;;;;;;4999905;28;20809;-86
2021/10/03 05:26:31;;;;;;;1.65;0.55;;;;;;;;;;4994284;28;20026;-87
2021/10/03 05:28:57;;;;;;;0.43;0.43;;;;;;;;;;4993866;28;20136;-88
2021/10/03 05:31:23;;;;;;;0.40;0.40;;;;;;;;;;4996094;28;20034;-89
2021/10/03 05:33:50;;;;;;;0.47;0.47;;;;;;;;;;4996008;28;20073;-88
2021/10/03 05:36:16;;;;;;;1.02;0.88;;;;;;;;;;5000929;28;20103;-88
2021/10/03 05:38:42;;;;;;;0.20;0.20;;;;;;;;;;5001879;28;20033;-85
2021/10/03 05:41:09;;;;;;;0.77;0.43;;;;;;;;;;4997233;28;20634;-85
2021/10/03 05:43:37;;;;;;;0.82;0.82;;;;;;;;;;4998193;28;20053;-87
2021/10/03 05:46:04;;;;;;;0.65;0.40;;;;;;;;;;4997746;28;20068;-86
2021/10/03 05:48:30;;;;;;;0.50;0.50;;;;;;;;;;5000826;28;20057;-88
2021/10/03 05:50:56;;;;;;;0.13;0.13;;;;;;;;;;4997295;28;20037;-86
2021/10/03 05:53:22;;;;;;;0.90;0.45;;;;;;;;;;5002055;28;20041;-88
2021/10/03 05:55:48;;;;;;;13.07;2.00;;;;;;;;;;4998790;28;20046;-87
2021/10/03 05:58:14;;;;;;;0.20;0.20;;;;;;;;;;4997234;28;20040;-86
2021/10/03 06:00:40;;;;;;;0.75;0.75;;;;;;;;;;4997261;28;20045;-85
2021/10/03 06:03:06;;;;;;;1.92;1.48;;;;;;;;;;4996099;28;20088;-82
2021/10/03 06:05:32;;;;;;;0.35;0.35;;;;;;;;;;5001689;28;20026;-82
2021/10/03 06:07:59;;;;;;;0.63;0.40;;;;;;;;;;5005125;28;20108;-82
2021/10/03 06:10:25;;;;;;;0.77;0.47;;;;;;;;;;4998102;28;20410;-82
2021/10/03 06:12:51;;;;;;;0.20;0.20;;;;;;;;;;5005344;28;20100;-82
2021/10/03 06:15:17;;;;;;;;;;;;;;;;;;5008169;28;20057;-83
2021/10/03 06:17:44;;;;;;;0.50;0.50;;;;;;;;;;5003991;28;19953;-82
2021/10/03 06:20:11;;;;;;;1.05;0.43;;;;;;;;;;5005197;28;20068;-82
2021/10/03 06:22:37;;;;;;;0.85;0.73;;;;;;;;;;5003524;28;20539;-82
2021/10/03 06:25:03;;;;;;;0.22;0.22;;;;;;;;;;4988971;28;20296;-82
2021/10/03 06:27:31;;;;;;;0.70;0.70;;;;;;;;;;5007121;28;20866;-82
2021/10/03 06:29:57;;;;;;;0.73;0.73;;;;;;;;;;5004499;28;20045;-82
2021/10/03 06:32:23;;;;;;;0.57;0.57;;;;;;;;;;5004621;28;20030;-82
2021/10/03 06:34:50;;;;;;;3.03;1.52;;;;;;;;;;5004588;28;20053;-82
2021/10/03 06:37:17;;;;;;;0.30;0.30;;;;;;;;;;5003684;28;20033;-82
2021/10/03 06:39:43;;;;;;;0.47;0.47;;;;;;;;;;5003237;28;20046;-82
2021/10/03 06:42:09;;;;;;;0.32;0.32;;;;;;;;;;4996569;28;20022;-82
2021/10/03 06:44:35;;;;;;;0.40;0.40;;;;;;;;;;4994286;28;20140;-85
2021/10/03 06:47:05;;;;;;;11.65;2.75;;;;;;;;;;4988748;28;20057;-84
2021/10/03 06:49:32;;;;;;;0.40;0.40;;;;;;;;;;4986043;28;20046;-84
2021/10/03 06:51:58;;;;;;;0.75;0.70;;;;;;;;;;4987684;28;20101;-84
2021/10/03 06:54:24;;;;;;;1.10;0.63;;;;;;;;;;4995905;28;20467;-83
2021/10/03 06:56:50;;;;;;;0.82;0.73;;;;;;;;;;4990170;28;20502;-84
2021/10/03 06:59:16;;;;;;;0.88;0.82;;;;;;;;;;5003332;28;20057;-84
2021/10/03 07:01:43;;;;;;;0.88;0.85;;;;;;;;;;5002053;28;20022;-84
2021/10/03 07:04:09;;;;;;;1.35;1.27;;;;;;;;;;4987543;28;20041;-85
2021/10/03 07:06:35;;;;;;;0.75;0.47;;;;;;;;;;4991574;28;20038;-85
2021/10/03 07:09:01;;;;;;;0.52;0.50;;;;;;;;;;4994982;28;20042;-89
2021/10/03 07:11:27;;;;;;;0.30;0.30;;;;;;;;;;4992106;28;20044;-90
2021/10/03 07:13:53;;;;;;;0.52;0.52;;;;;;;;;;5005873;28;20034;-86
2021/10/03 07:16:19;;;;;;;0.55;0.55;;;;;;;;;;4992010;28;20026;-86
2021/10/03 07:18:46;;;;;;;0.55;0.55;;;;;;;;;;4991018;28;20068;-86
2021/10/03 07:21:12;;;;;;;0.40;0.38;;;;;;;;;;4992845;28;20034;-87
2021/10/03 07:23:38;;;;;;;0.65;0.65;;;;;;;;;;4990543;28;20027;-86
2021/10/03 07:26:04;;;;;;;0.38;0.38;;;;;;;;;;5007482;28;20050;-87
2021/10/03 07:28:30;;;;;;;2.47;0.30;;;;;;;;;;4991192;28;20897;-86
2021/10/03 07:30:56;;;;;;;3.38;1.60;;;;;;;;;;4992861;28;20038;-86
2021/10/03 07:33:22;;;;;;;2.45;0.45;;;;;;;;;;4990159;28;20128;-86
2021/10/03 07:35:48;;;;;;;0.43;0.43;;;;;;;;;;4990979;28;20019;-85
2021/10/03 07:38:15;;;;;;;0.50;0.50;;;;;;;;;;4996831;28;20072;-83
2021/10/03 07:40:41;;;;;;;0.43;0.40;;;;;;;;;;4992408;28;20396;-83
2021/10/03 07:43:08;;;;;;;0.50;0.50;;;;;;;;;;5002485;28;20038;-85
2021/10/03 07:45:34;;;;;;;0.63;0.63;;;;;;;;;;5004244;28;20022;-86
2021/10/03 07:48:00;;;;;;;0.38;0.38;;;;;;;;;;5002746;28;20034;-87
2021/10/03 07:50:26;;;;;;;0.47;0.47;;;;;;;;;;5002887;28;20021;-85
2021/10/03 07:52:52;;;;;;;0.65;0.65;;;;;;;;;;5003949;28;20483;-86
2021/10/03 07:55:18;;;;;;;2.53;0.75;;;;;;;;;;5002495;28;20033;-83
2021/10/03 07:57:44;;;;;;;0.73;0.73;;;;;;;;;;5003486;28;20108;-84
2021/10/03 08:00:11;;;;;;;0.73;0.73;;;;;;;;;;5004353;28;20140;-85
2021/10/03 08:02:37;;;;;;;0.90;0.85;;;;;;;;;;5003031;28;20030;-85
2021/10/03 08:05:03;;;;;;;0.17;0.17;;;;;;;;;;5002479;28;20074;-84
2021/10/03 08:07:29;;;;;;;1.65;1.27;;;;;;;;;;5001588;28;20025;-84
2021/10/03 08:09:56;;;;;;;0.17;0.17;;;;;;;;;;4995002;28;20057;-86
2021/10/03 08:12:23;;;;;;;0.10;0.10;;;;;;;;;;5005045;28;20026;-86
2021/10/03 08:14:49;;;;;;;0.43;0.43;;;;;;;;;;5002360;28;20087;-85
2021/10/03 08:17:15;;;;;;;0.33;0.33;;;;;;;;;;5001858;28;20030;-85
2021/10/03 08:19:41;;;;;;;0.10;0.10;;;;;;;;;;5000514;28;20285;-85
2021/10/03 08:22:07;;;;;;;0.47;0.47;;;;;;;;;;5002225;28;20278;-85
2021/10/03 08:24:33;;;;;;;0.77;0.77;;;;;;;;;;5004921;28;20273;-85
2021/10/03 08:27:00;;;;;;;0.45;0.32;;;;;;;;;;5000005;28;20049;-85
2021/10/03 08:29:26;;;;;;;0.20;0.20;;;;;;;;;;5003155;28;20060;-84
2021/10/03 08:31:52;;;;;;;0.87;0.33;;;;;;;;;;5002046;28;20026;-84
2021/10/03 08:34:18;;;;;;;0.57;0.57;;;;;;;;;;5002307;28;20037;-84
2021/10/03 08:36:44;;;;;;;1.37;0.90;;;;;;;;;;5001455;28;20036;-83
2021/10/03 08:39:11;;;;;;;0.07;0.07;;;;;;;;;;4999033;28;20283;-84
2021/10/03 08:41:38;;;;;;;0.00;0.00;;;;;;;;;;5001827;28;20355;-84
2021/10/03 08:44:04;;;;;;;0.00;0.00;;;;;;;;;;5002029;28;20285;-84
2021/10/03 08:46:30;;;;;;;0.17;0.17;;;;;;;;;;5001864;28;20040;-84
2021/10/03 08:48:57;;;;;;;0.20;0.20;;;;;;;;;;4993028;28;20050;-85
2021/10/03 08:51:24;;;;;;;0.20;0.20;;;;;;;;;;5000419;28;20274;-85
2021/10/03 08:53:50;;;;;;;0.10;0.10;;;;;;;;;;5000917;28;20117;-85
2021/10/03 08:56:16;;;;;;;0.68;0.35;;;;;;;;;;5000936;28;20038;-84
2021/10/03 08:58:42;;;;;;;0.10;0.10;;;;;;;;;;4999051;28;20030;-84
2021/10/03 09:01:11;;;;;;;0.30;0.30;;;;;;;;;;4999168;28;20030;-83
2021/10/03 09:03:37;;;;;;;0.20;0.20;;;;;;;;;;5002846;28;20034;-83
2021/10/03 09:06:03;;;;;;;0.00;0.00;;;;;;;;;;4998770;28;20242;-84
2021/10/03 09:08:31;;;;;;;0.10;0.10;;;;;;;;;;4996609;28;20076;-84
2021/10/03 09:11:07;;;;;;;1.10;0.22;;;;;;;;;;5000331;28;20030;-84
2021/10/03 09:13:33;;;;;;;0.95;0.20;;;;;;;;;;4998801;28;20052;-84
2021/10/03 09:16:09;;;;;;;0.37;0.37;;;;;;;;;;4996778;28;20802;-84
2021/10/03 09:18:38;;;;;;;1.02;1.02;;;;;;;;;;4999146;28;20143;-84
2021/10/03 09:21:04;;;;;;;0.30;0.30;;;;;;;;;;5001949;28;20505;-83
2021/10/03 09:23:30;;;;;;;0.20;0.17;;;;;;;;;;5000894;28;20037;-83
2021/10/03 09:25:57;;;;;;;0.35;0.30;;;;;;;;;;5001581;28;20037;-83
2021/10/03 09:28:23;;;;;;;2.05;1.30;;;;;;;;;;5000537;28;20532;-83
2021/10/03 09:30:52;;;;;;;0.00;0.00;;;;;;;;;;5000273;28;20036;-83
2021/10/03 09:33:18;;;;;;;1.30;0.77;;;;;;;;;;5000028;28;20576;-83
2021/10/03 09:35:54;;;;;;;0.28;0.20;;;;;;;;;;4998809;28;20152;-83
2021/10/03 09:38:20;;;;;;;0.20;0.20;;;;;;;;;;5001127;28;20076;-84
2021/10/03 09:40:57;;;;;;;0.57;0.50;;;;;;;;;;4997353;28;20038;-86
2021/10/03 09:43:37;;;;;;;0.20;0.20;;;;;;;;;;5000407;28;20041;-86
2021/10/03 09:46:03;;;;;;;0.20;0.20;;;;;;;;;;4993370;28;20030;-85
2021/10/03 09:48:29;;;;;;;0.20;0.20;;;;;;;;;;5002411;28;20030;-85
2021/10/03 09:50:55;;;;;;;0.10;0.10;;;;;;;;;;5000395;28;20041;-86
2021/10/03 09:53:22;;;;;;;0.30;0.30;;;;;;;;;;5000505;28;20048;-86
2021/10/03 09:55:48;;;;;;;0.10;0.10;;;;;;;;;;5001365;28;20014;-86
2021/10/03 09:58:14;;;;;;;0.85;0.50;;;;;;;;;;4998775;28;20112;-86
2021/10/03 10:00:40;;;;;;;0.73;0.57;;;;;;;;;;4997822;28;20064;-86
2021/10/03 10:03:06;;;;;;;0.83;0.83;;;;;;;;;;4999990;28;20030;-85
2021/10/03 10:05:32;;;;;;;0.52;0.52;;;;;;;;;;5001105;28;20314;-86
2021/10/03 10:07:58;;;;;;;0.20;0.20;;;;;;;;;;4997687;28;20791;-86
2021/10/03 10:10:25;;;;;;;0.13;0.13;;;;;;;;;;4995846;28;20034;-86
2021/10/03 10:12:51;;;;;;;;;;;;;;;;;;4987409;28;20550;-86
2021/10/03 10:15:21;;;;;;;0.17;0.17;;;;;;;;;;4985946;28;19914;-87
2021/10/03 10:17:47;;;;;;;0.10;0.10;;;;;;;;;;4986522;28;20035;-86
2021/10/03 10:20:26;;;;;;;0.10;0.10;;;;;;;;;;4989056;28;20033;-87
2021/10/03 10:23:02;;;;;;;0.10;0.10;;;;;;;;;;4991167;28;20599;-87
2021/10/03 10:25:42;;;;;;;0.10;0.10;;;;;;;;;;4989814;28;20330;-87
2021/10/03 10:28:10;;;;;;;0.25;0.25;;;;;;;;;;5002507;28;20046;-87
2021/10/03 10:30:36;;;;;;;0.28;0.28;;;;;;;;;;4994963;28;20523;-87
2021/10/03 10:33:04;;;;;;;;;;;;;;;;;;5006746;28;20042;-87
2021/10/03 10:35:31;;;;;;;0.10;0.10;;;;;;;;;;5006025;28;19921;-88
2021/10/03 10:37:57;;;;;;;0.08;0.08;;;;;;;;;;5008102;28;20049;-87
2021/10/03 10:42:49;;;;;;;0.00;0.00;;;;;;;;;;5005434;28;20033;-86
2021/10/03 10:45:43;;;;;;;0.00;0.00;;;;;;;;;;5004740;28;20269;-88
2021/10/03 10:48:09;;;;;;;0.10;0.10;;;;;;;;;;4988483;28;20437;-87
2021/10/03 10:50:42;;;;;;;0.00;0.00;;;;;;;;;;5004624;28;20034;-87
2021/10/03 10:53:17;;;;;;;0.08;0.08;;;;;;;;;;4991552;28;20030;-88
2021/10/03 10:55:59;;;;;;;0.00;0.00;;;;;;;;;;4989468;28;20088;-87
2021/10/03 10:58:25;;;;;;;0.00;0.00;;;;;;;;;;4989790;28;20058;-87
2021/10/03 11:00:56;;;;;;;0.00;0.00;;;;;;;;;;4987856;28;20038;-86
2021/10/03 11:03:42;;;;;;;0.10;0.10;;;;;;;;;;5005358;28;20041;-86
2021/10/03 11:06:34;;;;;;;1.13;1.08;;;;;;;;;;5002710;28;20030;-85
2021/10/03 11:09:03;;;;;;;1.10;1.10;;;;;;;;;;5000839;28;20125;-85
2021/10/03 11:11:30;;;;;;;2.10;0.60;;;;;;;;;;4997005;28;20727;-86
2021/10/03 11:14:01;;;;;;;8.90;2.17;;;;;;;;;;5009159;28;20780;-87
2021/10/03 11:16:31;;;;;;;14.77;4.05;;;;;;;;;;4987930;28;20036;-88
2021/10/03 11:19:00;;;;;;;2.10;1.92;;;;;;;;;;5003790;28;20044;-90
2021/10/03 11:21:28;;;;;;;0.77;0.73;;;;;;;;;;5005302;28;20049;-89
2021/10/03 11:23:55;;;;;;;3.20;0.80;;;;;;;;;;5006848;28;20418;-88
2021/10/03 11:26:23;;;;;;;1.00;0.52;;;;;;;;;;4990409;28;20030;-88
2021/10/03 11:28:50;;;;;;;0.63;0.47;;;;;;;;;;4994772;28;20100;-89
2021/10/03 11:31:37;;;;;;;0.20;0.20;;;;;;;;;;5002479;28;20026;-89
2021/10/03 11:34:04;;;;;;;0.85;0.80;;;;;;;;;;4992340;28;20172;-88
2021/10/03 11:36:30;;;;;;;0.45;0.45;;;;;;;;;;5005066;28;20033;-89
2021/10/03 11:38:57;;;;;;;0.03;0.03;;;;;;;;;;5005513;28;20046;-88
2021/10/03 11:41:23;;;;;;;0.68;0.28;;;;;;;;;;5005468;28;20080;-89
2021/10/03 11:43:49;;;;;;;2.47;0.20;;;;;;;;;;5005548;28;20037;-89
2021/10/03 11:46:15;;;;;;;0.20;0.20;;;;;;;;;;5002829;28;20038;-89
2021/10/03 11:48:42;;;;;;;2.72;0.43;;;;;;;;;;5004405;28;20045;-88
2021/10/03 11:51:08;;;;;;;0.53;0.40;;;;;;;;;;5005271;28;20080;-89
2021/10/03 11:53:47;;;;;;;0.15;0.15;;;;;;;;;;5006391;28;20312;-89
2021/10/03 11:56:17;;;;;;;0.40;0.40;;;;;;;;;;5004969;28;20895;-87
2021/10/03 11:58:43;;;;;;;0.20;0.20;;;;;;;;;;5005159;28;20045;-89
2021/10/03 12:01:10;;;;;;;0.38;0.38;;;;;;;;;;5001963;28;20618;-89
2021/10/03 12:03:51;;;;;;;0.20;0.20;;;;;;;;;;5004583;28;20038;-89
2021/10/03 12:06:17;;;;;;;0.77;0.77;;;;;;;;;;5004023;28;20038;-89
2021/10/03 12:08:43;;;;;;;1.20;1.00;;;;;;;;;;5002532;28;20036;-89
2021/10/03 12:11:09;;;;;;;0.00;0.00;;;;;;;;;;4995083;28;20055;-89
2021/10/03 12:13:36;;;;;;;0.75;0.75;;;;;;;;;;5004811;28;20022;-90
2021/10/03 12:16:02;;;;;;;1.77;1.40;;;;;;;;;;5004248;28;20037;-89
2021/10/03 12:18:28;;;;;;;0.10;0.10;;;;;;;;;;5004370;28;20053;-89
2021/10/03 12:21:02;;;;;;;4.28;1.30;;;;;;;;;;5004514;28;20065;-89
2021/10/03 12:24:00;;;;;;;0.45;0.43;;;;;;;;;;5005370;28;20030;-89
2021/10/03 12:26:28;;;;;;;0.10;0.10;;;;;;;;;;4992371;28;20046;-89
2021/10/03 12:28:54;;;;;;;0.10;0.10;;;;;;;;;;5002984;28;20093;-90
2021/10/03 12:31:38;;;;;;;0.37;0.37;;;;;;;;;;5001918;28;20454;-88
2021/10/03 12:34:26;;;;;;;0.32;0.20;;;;;;;;;;5001839;28;20041;-88
2021/10/03 12:36:55;;;;;;;0.20;0.20;;;;;;;;;;4996147;28;20022;-89
2021/10/03 12:39:26;;;;;;;0.10;0.10;;;;;;;;;;5002778;28;20092;-89
2021/10/03 12:41:53;;;;;;;0.50;0.50;;;;;;;;;;5004639;28;20026;-89
2021/10/03 12:44:26;;;;;;;0.00;0.00;;;;;;;;;;5002650;28;20033;-88
2021/10/03 12:46:52;;;;;;;0.17;0.17;;;;;;;;;;5004152;28;20401;-89
2021/10/03 12:49:18;;;;;;;1.00;0.40;;;;;;;;;;5002052;28;20042;-89
2021/10/03 12:51:45;;;;;;;0.08;0.08;;;;;;;;;;5002800;28;20080;-88
2021/10/03 12:54:11;;;;;;;0.55;0.55;;;;;;;;;;5018860;28;20510;-89
2021/10/03 12:56:37;;;;;;;0.20;0.20;;;;;;;;;;5010390;28;20121;-89
2021/10/03 12:59:03;;;;;;;0.03;0.03;;;;;;;;;;5002473;28;20390;-89
2021/10/03 13:01:29;;;;;;;0.13;0.13;;;;;;;;;;5001336;28;20026;-88
2021/10/03 13:03:55;;;;;;;0.43;0.37;;;;;;;;;;5002273;28;20069;-89
2021/10/03 13:06:21;;;;;;;0.00;0.00;;;;;;;;;;5004396;28;20331;-90
2021/10/03 13:08:52;;;;;;;1.70;0.53;;;;;;;;;;5002128;28;20301;-89
2021/10/03 13:11:18;;;;;;;7.13;0.90;;;;;;;;;;4997149;28;20352;-90
2021/10/03 13:13:45;;;;;;;3.65;1.67;;;;;;;;;;4998767;28;20056;-90
2021/10/03 13:16:11;;;;;;;0.57;0.57;;;;;;;;;;5000843;28;20055;-89
2021/10/03 13:18:37;;;;;;;0.17;0.17;;;;;;;;;;5002055;28;20285;-88
2021/10/03 13:21:04;;;;;;;1.00;0.40;;;;;;;;;;5002109;28;20279;-89
2021/10/03 13:23:30;;;;;;;0.30;0.30;;;;;;;;;;5003517;28;20572;-89
2021/10/03 13:25:56;;;;;;;0.00;0.00;;;;;;;;;;5002565;28;20038;-88
2021/10/03 13:28:22;;;;;;;0.00;0.00;;;;;;;;;;5002783;28;20136;-89
2021/10/03 13:30:49;;;;;;;0.00;0.00;;;;;;;;;;5002330;28;20359;-89
2021/10/03 13:33:15;;;;;;;0.10;0.10;;;;;;;;;;5000953;28;20265;-89
2021/10/03 13:35:44;;;;;;;0.10;0.10;;;;;;;;;;4998621;28;20053;-89
2021/10/03 13:38:11;;;;;;;0.10;0.10;;;;;;;;;;4993529;28;20033;-89
2021/10/03 13:40:37;;;;;;;0.03;0.03;;;;;;;;;;5003148;28;20466;-89
2021/10/03 13:43:04;;;;;;;0.00;0.00;;;;;;;;;;5001149;28;20121;-90
2021/10/03 13:45:31;;;;;;;0.00;0.00;;;;;;;;;;4986489;28;20026;-89
2021/10/03 13:47:57;;;;;;;0.00;0.00;;;;;;;;;;5001713;28;20096;-88
2021/10/03 13:50:23;;;;;;;0.10;0.10;;;;;;;;;;5009751;28;20037;-88
2021/10/03 13:52:49;;;;;;;0.10;0.10;;;;;;;;;;5000868;28;21105;-88
2021/10/03 13:55:15;;;;;;;0.00;0.00;;;;;;;;;;5001514;28;20091;-88
2021/10/03 13:57:41;;;;;;;0.00;0.00;;;;;;;;;;4989197;28;20027;-88
2021/10/03 14:00:09;;;;;;;0.00;0.00;;;;;;;;;;4990383;28;20549;-88
2021/10/03 14:02:37;;;;;;;0.00;0.00;;;;;;;;;;4991692;28;20796;-88
2021/10/03 14:05:04;;;;;;;0.20;0.20;;;;;;;;;;5006846;28;20026;-88
2021/10/03 14:07:30;;;;;;;0.22;0.17;;;;;;;;;;4989660;28;20116;-88
2021/10/03 14:09:56;;;;;;;0.30;0.30;;;;;;;;;;5002909;28;20034;-89
2021/10/03 14:12:22;;;;;;;0.00;0.00;;;;;;;;;;4991676;28;20030;-89
2021/10/03 14:14:48;;;;;;;0.35;0.35;;;;;;;;;;4993113;28;20022;-90
2021/10/03 14:17:14;;;;;;;0.00;0.00;;;;;;;;;;5003624;28;20034;-89
2021/10/03 14:19:40;;;;;;;0.00;0.00;;;;;;;;;;5010198;28;20061;-90
2021/10/03 14:22:06;;;;;;;0.07;0.07;;;;;;;;;;5015501;28;20077;-89
2021/10/03 14:24:32;;;;;;;6.73;1.20;;;;;;;;;;4990436;28;20348;-89
2021/10/03 14:26:58;;;;;;;0.00;0.00;;;;;;;;;;5019345;28;21491;-90
2021/10/03 14:29:24;;;;;;;0.00;0.00;;;;;;;;;;5006268;28;20542;-89
2021/10/03 14:31:50;;;;;;;0.00;0.00;;;;;;;;;;5006500;28;20033;-91
2021/10/03 14:34:17;;;;;;;0.00;0.00;;;;;;;;;;5007423;28;20938;-90
2021/10/03 14:36:43;;;;;;;0.00;0.00;;;;;;;;;;5003443;28;20052;-91
2021/10/03 14:39:09;;;;;;;0.00;0.00;;;;;;;;;;5008666;28;20030;-91
2021/10/03 14:41:35;;;;;;;0.10;0.10;;;;;;;;;;5008318;28;20277;-90
2021/10/03 14:44:05;;;;;;;0.08;0.08;;;;;;;;;;5003722;28;20037;-90
2021/10/03 14:46:31;;;;;;;0.52;0.45;;;;;;;;;;5003165;28;20042;-89
2021/10/03 14:48:59;;;;;;;0.10;0.10;;;;;;;;;;5008142;28;20073;-90